sensor_id;sensor_type;location;lat;lon;timestamp;P1;durP1;ratioP1;P2;durP2;ratioP2
15915;SDS011;8057;47.830;-3.870;2023-05-24T00:01:39;4.83;;;1.77;;
15915;SDS011;8057;47.830;-3.870;2023-05-24T00:05:48;1.87;;;1.30;;
15915;SDS011;8057;47.830;-3.870;2023-05-24T00:09:58;4.20;;;1.53;;
15915;SDS011;8057;47.830;-3.870;2023-05-24T00:14:07;4.77;;;1.50;;
15915;SDS011;8057;47.830;-3.870;2023-05-24T00:18:17;2.67;;;1.47;;
15915;SDS011;8057;47.830;-3.870;2023-05-24T00:22:27;4.03;;;1.70;;
15915;SDS011;8057;47.830;-3.870;2023-05-24T00:26:36;2.27;;;1.40;;
15915;SDS011;8057;47.830;-3.870;2023-05-24T00:30:45;1.60;;;1.50;;
15915;SDS011;8057;47.830;-3.870;2023-05-24T00:34:56;4.50;;;1.40;;
15915;SDS011;8057;47.830;-3.870;2023-05-24T00:39:05;4.67;;;1.80;;
15915;SDS011;8057;47.830;-3.870;2023-05-24T00:43:14;2.73;;;1.60;;
15915;SDS011;8057;47.830;-3.870;2023-05-24T00:47:23;3.67;;;1.37;;
15915;SDS011;8057;47.830;-3.870;2023-05-24T00:51:35;3.03;;;1.93;;
15915;SDS011;8057;47.830;-3.870;2023-05-24T00:55:45;3.80;;;1.80;;
15915;SDS011;8057;47.830;-3.870;2023-05-24T00:59:54;4.03;;;1.90;;
15915;SDS011;8057;47.830;-3.870;2023-05-24T01:04:04;3.97;;;1.80;;
15915;SDS011;8057;47.830;-3.870;2023-05-24T01:08:17;5.43;;;2.40;;
15915;SDS011;8057;47.830;-3.870;2023-05-24T01:12:37;3.90;;;1.80;;
15915;SDS011;8057;47.830;-3.870;2023-05-24T01:16:58;5.33;;;2.00;;
15915;SDS011;8057;47.830;-3.870;2023-05-24T01:21:15;4.47;;;2.17;;
15915;SDS011;8057;47.830;-3.870;2023-05-24T01:30:12;8.27;;;2.13;;
15915;SDS011;8057;47.830;-3.870;2023-05-24T01:34:23;5.03;;;2.10;;
15915;SDS011;8057;47.830;-3.870;2023-05-24T01:38:33;4.30;;;1.80;;
15915;SDS011;8057;47.830;-3.870;2023-05-24T01:42:43;4.67;;;2.10;;
15915;SDS011;8057;47.830;-3.870;2023-05-24T01:47:03;5.53;;;2.10;;
15915;SDS011;8057;47.830;-3.870;2023-05-24T01:51:24;4.33;;;2.00;;
15915;SDS011;8057;47.830;-3.870;2023-05-24T01:55:37;2.80;;;1.80;;
15915;SDS011;8057;47.830;-3.870;2023-05-24T01:59:47;3.67;;;1.90;;
15915;SDS011;8057;47.830;-3.870;2023-05-24T02:03:59;4.83;;;2.00;;
15915;SDS011;8057;47.830;-3.870;2023-05-24T02:08:08;2.43;;;1.57;;
15915;SDS011;8057;47.830;-3.870;2023-05-24T02:12:18;5.33;;;2.27;;
15915;SDS011;8057;47.830;-3.870;2023-05-24T02:16:27;3.67;;;1.93;;
15915;SDS011;8057;47.830;-3.870;2023-05-24T02:20:38;4.43;;;2.00;;
15915;SDS011;8057;47.830;-3.870;2023-05-24T02:24:48;8.80;;;2.60;;
15915;SDS011;8057;47.830;-3.870;2023-05-24T02:28:57;8.20;;;2.73;;
15915;SDS011;8057;47.830;-3.870;2023-05-24T02:33:06;4.47;;;1.97;;
15915;SDS011;8057;47.830;-3.870;2023-05-24T02:37:17;6.10;;;2.33;;
15915;SDS011;8057;47.830;-3.870;2023-05-24T02:41:26;7.83;;;2.43;;
15915;SDS011;8057;47.830;-3.870;2023-05-24T02:45:35;5.67;;;2.30;;
15915;SDS011;8057;47.830;-3.870;2023-05-24T02:49:44;6.37;;;2.30;;
15915;SDS011;8057;47.830;-3.870;2023-05-24T02:53:55;5.07;;;2.30;;
15915;SDS011;8057;47.830;-3.870;2023-05-24T02:58:04;3.60;;;2.40;;
15915;SDS011;8057;47.830;-3.870;2023-05-24T03:02:14;3.57;;;2.00;;
15915;SDS011;8057;47.830;-3.870;2023-05-24T03:06:23;4.07;;;2.20;;
15915;SDS011;8057;47.830;-3.870;2023-05-24T03:10:34;4.60;;;2.07;;
15915;SDS011;8057;47.830;-3.870;2023-05-24T03:14:43;4.63;;;2.30;;
15915;SDS011;8057;47.830;-3.870;2023-05-24T03:18:52;4.17;;;2.37;;
15915;SDS011;8057;47.830;-3.870;2023-05-24T03:23:02;4.03;;;2.10;;
15915;SDS011;8057;47.830;-3.870;2023-05-24T03:27:13;5.73;;;2.13;;
15915;SDS011;8057;47.830;-3.870;2023-05-24T03:31:22;4.77;;;1.80;;
15915;SDS011;8057;47.830;-3.870;2023-05-24T03:35:32;4.80;;;2.13;;
15915;SDS011;8057;47.830;-3.870;2023-05-24T03:39:41;5.23;;;2.10;;
15915;SDS011;8057;47.830;-3.870;2023-05-24T03:43:52;4.83;;;2.20;;
15915;SDS011;8057;47.830;-3.870;2023-05-24T03:48:01;4.37;;;1.97;;
15915;SDS011;8057;47.830;-3.870;2023-05-24T03:52:10;4.63;;;2.57;;
15915;SDS011;8057;47.830;-3.870;2023-05-24T03:56:19;7.17;;;2.67;;
15915;SDS011;8057;47.830;-3.870;2023-05-24T04:00:30;6.43;;;2.83;;
15915;SDS011;8057;47.830;-3.870;2023-05-24T04:04:39;6.63;;;1.90;;
15915;SDS011;8057;47.830;-3.870;2023-05-24T04:08:48;7.33;;;2.60;;
15915;SDS011;8057;47.830;-3.870;2023-05-24T04:12:58;5.17;;;2.40;;
15915;SDS011;8057;47.830;-3.870;2023-05-24T04:17:09;4.90;;;2.57;;
15915;SDS011;8057;47.830;-3.870;2023-05-24T04:21:18;6.77;;;2.47;;
15915;SDS011;8057;47.830;-3.870;2023-05-24T04:25:27;5.33;;;2.17;;
15915;SDS011;8057;47.830;-3.870;2023-05-24T04:29:39;6.30;;;2.33;;
15915;SDS011;8057;47.830;-3.870;2023-05-24T04:33:50;6.47;;;2.27;;
15915;SDS011;8057;47.830;-3.870;2023-05-24T04:37:59;4.83;;;2.37;;
15915;SDS011;8057;47.830;-3.870;2023-05-24T04:42:08;6.27;;;2.20;;
15915;SDS011;8057;47.830;-3.870;2023-05-24T04:46:18;4.80;;;2.13;;
15915;SDS011;8057;47.830;-3.870;2023-05-24T04:50:28;4.37;;;2.20;;
15915;SDS011;8057;47.830;-3.870;2023-05-24T04:54:38;5.10;;;2.17;;
15915;SDS011;8057;47.830;-3.870;2023-05-24T04:58:47;6.00;;;2.40;;
15915;SDS011;8057;47.830;-3.870;2023-05-24T05:02:56;7.13;;;2.17;;
15915;SDS011;8057;47.830;-3.870;2023-05-24T05:07:07;4.77;;;1.90;;
15915;SDS011;8057;47.830;-3.870;2023-05-24T05:11:16;6.40;;;2.23;;
15915;SDS011;8057;47.830;-3.870;2023-05-24T05:15:25;2.73;;;2.13;;
15915;SDS011;8057;47.830;-3.870;2023-05-24T05:19:34;3.83;;;1.90;;
15915;SDS011;8057;47.830;-3.870;2023-05-24T05:23:45;3.93;;;2.33;;
15915;SDS011;8057;47.830;-3.870;2023-05-24T05:27:54;5.83;;;2.03;;
15915;SDS011;8057;47.830;-3.870;2023-05-24T05:32:03;5.53;;;2.07;;
15915;SDS011;8057;47.830;-3.870;2023-05-24T05:36:13;6.10;;;2.50;;
15915;SDS011;8057;47.830;-3.870;2023-05-24T05:40:23;4.83;;;2.33;;
15915;SDS011;8057;47.830;-3.870;2023-05-24T05:44:33;4.30;;;1.93;;
15915;SDS011;8057;47.830;-3.870;2023-05-24T05:48:42;5.00;;;2.13;;
15915;SDS011;8057;47.830;-3.870;2023-05-24T05:52:52;4.53;;;2.00;;
15915;SDS011;8057;47.830;-3.870;2023-05-24T05:57:03;7.03;;;2.10;;
15915;SDS011;8057;47.830;-3.870;2023-05-24T06:01:14;4.57;;;2.20;;
15915;SDS011;8057;47.830;-3.870;2023-05-24T06:05:23;5.37;;;2.20;;
15915;SDS011;8057;47.830;-3.870;2023-05-24T06:09:32;5.53;;;2.37;;
15915;SDS011;8057;47.830;-3.870;2023-05-24T06:13:43;9.47;;;2.00;;
15915;SDS011;8057;47.830;-3.870;2023-05-24T06:17:52;5.07;;;2.07;;
15915;SDS011;8057;47.830;-3.870;2023-05-24T06:22:02;5.43;;;2.30;;
15915;SDS011;8057;47.830;-3.870;2023-05-24T06:26:11;5.37;;;2.50;;
15915;SDS011;8057;47.830;-3.870;2023-05-24T06:30:22;4.83;;;2.20;;
15915;SDS011;8057;47.830;-3.870;2023-05-24T06:34:32;5.00;;;2.07;;
15915;SDS011;8057;47.830;-3.870;2023-05-24T06:38:41;5.60;;;2.00;;
15915;SDS011;8057;47.830;-3.870;2023-05-24T06:42:50;4.17;;;1.63;;
15915;SDS011;8057;47.830;-3.870;2023-05-24T06:47:01;7.63;;;2.60;;
15915;SDS011;8057;47.830;-3.870;2023-05-24T06:51:12;2.77;;;2.00;;
15915;SDS011;8057;47.830;-3.870;2023-05-24T06:55:21;7.23;;;2.50;;
15915;SDS011;8057;47.830;-3.870;2023-05-24T06:59:30;6.93;;;2.47;;
15915;SDS011;8057;47.830;-3.870;2023-05-24T07:03:41;5.03;;;2.13;;
15915;SDS011;8057;47.830;-3.870;2023-05-24T07:07:50;5.27;;;2.23;;
15915;SDS011;8057;47.830;-3.870;2023-05-24T07:11:59;5.67;;;2.00;;
15915;SDS011;8057;47.830;-3.870;2023-05-24T07:16:08;5.87;;;2.13;;
15915;SDS011;8057;47.830;-3.870;2023-05-24T07:20:22;3.43;;;1.83;;
15915;SDS011;8057;47.830;-3.870;2023-05-24T07:24:31;5.63;;;2.17;;
15915;SDS011;8057;47.830;-3.870;2023-05-24T07:28:40;5.57;;;2.10;;
15915;SDS011;8057;47.830;-3.870;2023-05-24T07:32:49;4.97;;;1.83;;
15915;SDS011;8057;47.830;-3.870;2023-05-24T07:37:01;4.50;;;1.93;;
15915;SDS011;8057;47.830;-3.870;2023-05-24T07:41:12;3.17;;;1.87;;
15915;SDS011;8057;47.830;-3.870;2023-05-24T07:45:21;4.73;;;2.00;;
15915;SDS011;8057;47.830;-3.870;2023-05-24T07:49:30;4.33;;;2.20;;
15915;SDS011;8057;47.830;-3.870;2023-05-24T07:53:41;3.10;;;1.70;;
15915;SDS011;8057;47.830;-3.870;2023-05-24T07:57:50;3.63;;;1.87;;
15915;SDS011;8057;47.830;-3.870;2023-05-24T08:01:59;6.13;;;2.47;;
15915;SDS011;8057;47.830;-3.870;2023-05-24T08:06:11;3.87;;;2.20;;
15915;SDS011;8057;47.830;-3.870;2023-05-24T08:10:21;5.17;;;2.30;;
15915;SDS011;8057;47.830;-3.870;2023-05-24T08:14:30;6.57;;;2.03;;
15915;SDS011;8057;47.830;-3.870;2023-05-24T08:18:40;4.23;;;2.37;;
15915;SDS011;8057;47.830;-3.870;2023-05-24T08:22:49;3.77;;;2.03;;
15915;SDS011;8057;47.830;-3.870;2023-05-24T08:26:59;4.40;;;2.57;;
15915;SDS011;8057;47.830;-3.870;2023-05-24T08:31:10;4.40;;;2.50;;
15915;SDS011;8057;47.830;-3.870;2023-05-24T08:35:19;3.93;;;1.93;;
15915;SDS011;8057;47.830;-3.870;2023-05-24T08:39:29;5.67;;;2.73;;
15915;SDS011;8057;47.830;-3.870;2023-05-24T08:43:39;4.47;;;2.37;;
15915;SDS011;8057;47.830;-3.870;2023-05-24T08:47:49;3.47;;;2.47;;
15915;SDS011;8057;47.830;-3.870;2023-05-24T08:51:59;5.77;;;2.40;;
15915;SDS011;8057;47.830;-3.870;2023-05-24T08:56:09;4.63;;;2.10;;
15915;SDS011;8057;47.830;-3.870;2023-05-24T09:00:20;2.80;;;1.97;;
15915;SDS011;8057;47.830;-3.870;2023-05-24T09:04:30;5.40;;;2.20;;
15915;SDS011;8057;47.830;-3.870;2023-05-24T09:08:44;3.53;;;2.03;;
15915;SDS011;8057;47.830;-3.870;2023-05-24T09:12:54;4.43;;;1.70;;
15915;SDS011;8057;47.830;-3.870;2023-05-24T09:17:06;4.27;;;2.00;;
15915;SDS011;8057;47.830;-3.870;2023-05-24T09:21:16;3.00;;;1.60;;
15915;SDS011;8057;47.830;-3.870;2023-05-24T09:25:26;3.07;;;1.63;;
15915;SDS011;8057;47.830;-3.870;2023-05-24T09:29:36;4.13;;;1.93;;
15915;SDS011;8057;47.830;-3.870;2023-05-24T09:33:47;3.57;;;1.97;;
15915;SDS011;8057;47.830;-3.870;2023-05-24T09:37:57;4.33;;;2.10;;
15915;SDS011;8057;47.830;-3.870;2023-05-24T09:42:07;4.57;;;2.30;;
15915;SDS011;8057;47.830;-3.870;2023-05-24T09:46:21;3.30;;;1.70;;
15915;SDS011;8057;47.830;-3.870;2023-05-24T09:50:32;3.20;;;1.90;;
15915;SDS011;8057;47.830;-3.870;2023-05-24T09:54:41;3.37;;;1.80;;
15915;SDS011;8057;47.830;-3.870;2023-05-24T09:58:51;3.53;;;1.90;;
15915;SDS011;8057;47.830;-3.870;2023-05-24T10:03:01;2.93;;;2.00;;
15915;SDS011;8057;47.830;-3.870;2023-05-24T10:07:14;3.47;;;1.83;;
15915;SDS011;8057;47.830;-3.870;2023-05-24T10:11:23;4.57;;;1.93;;
15915;SDS011;8057;47.830;-3.870;2023-05-24T10:15:33;4.93;;;2.60;;
15915;SDS011;8057;47.830;-3.870;2023-05-24T10:19:42;5.13;;;2.10;;
15915;SDS011;8057;47.830;-3.870;2023-05-24T10:23:56;3.80;;;2.50;;
15915;SDS011;8057;47.830;-3.870;2023-05-24T10:28:07;4.40;;;1.83;;
15915;SDS011;8057;47.830;-3.870;2023-05-24T10:32:20;3.63;;;1.90;;
15915;SDS011;8057;47.830;-3.870;2023-05-24T10:36:32;4.87;;;2.30;;
15915;SDS011;8057;47.830;-3.870;2023-05-24T10:40:44;3.13;;;1.87;;
15915;SDS011;8057;47.830;-3.870;2023-05-24T10:44:55;1.97;;;1.77;;
15915;SDS011;8057;47.830;-3.870;2023-05-24T10:49:04;5.30;;;2.33;;
15915;SDS011;8057;47.830;-3.870;2023-05-24T10:53:14;3.87;;;1.93;;
15915;SDS011;8057;47.830;-3.870;2023-05-24T10:57:26;2.70;;;1.60;;
15915;SDS011;8057;47.830;-3.870;2023-05-24T11:01:36;4.90;;;2.03;;
15915;SDS011;8057;47.830;-3.870;2023-05-24T11:05:49;2.30;;;1.70;;
15915;SDS011;8057;47.830;-3.870;2023-05-24T11:10:02;3.13;;;2.10;;
15915;SDS011;8057;47.830;-3.870;2023-05-24T11:14:18;2.40;;;1.83;;
15915;SDS011;8057;47.830;-3.870;2023-05-24T11:18:33;3.80;;;1.90;;
15915;SDS011;8057;47.830;-3.870;2023-05-24T11:22:45;4.30;;;2.17;;
15915;SDS011;8057;47.830;-3.870;2023-05-24T11:26:58;3.00;;;1.80;;
15915;SDS011;8057;47.830;-3.870;2023-05-24T11:31:09;4.73;;;2.03;;
15915;SDS011;8057;47.830;-3.870;2023-05-24T11:35:18;4.17;;;2.00;;
15915;SDS011;8057;47.830;-3.870;2023-05-24T11:39:29;2.57;;;2.03;;
15915;SDS011;8057;47.830;-3.870;2023-05-24T11:43:39;2.73;;;1.40;;
15915;SDS011;8057;47.830;-3.870;2023-05-24T11:47:49;2.50;;;2.00;;
15915;SDS011;8057;47.830;-3.870;2023-05-24T11:52:00;3.93;;;2.10;;
15915;SDS011;8057;47.830;-3.870;2023-05-24T11:56:09;2.60;;;1.93;;
15915;SDS011;8057;47.830;-3.870;2023-05-24T12:00:23;2.37;;;1.57;;
15915;SDS011;8057;47.830;-3.870;2023-05-24T12:04:35;3.10;;;1.93;;
15915;SDS011;8057;47.830;-3.870;2023-05-24T12:08:44;2.70;;;1.93;;
15915;SDS011;8057;47.830;-3.870;2023-05-24T12:12:53;5.60;;;2.20;;
15915;SDS011;8057;47.830;-3.870;2023-05-24T12:17:03;2.10;;;1.90;;
15915;SDS011;8057;47.830;-3.870;2023-05-24T12:21:14;2.87;;;2.00;;
15915;SDS011;8057;47.830;-3.870;2023-05-24T12:25:24;3.73;;;2.00;;
15915;SDS011;8057;47.830;-3.870;2023-05-24T12:29:35;4.07;;;2.10;;
15915;SDS011;8057;47.830;-3.870;2023-05-24T12:33:46;2.40;;;2.03;;
15915;SDS011;8057;47.830;-3.870;2023-05-24T12:38:01;3.93;;;2.30;;
15915;SDS011;8057;47.830;-3.870;2023-05-24T12:42:10;3.47;;;2.30;;
15915;SDS011;8057;47.830;-3.870;2023-05-24T12:46:20;4.10;;;1.87;;
15915;SDS011;8057;47.830;-3.870;2023-05-24T12:50:29;4.90;;;2.20;;
15915;SDS011;8057;47.830;-3.870;2023-05-24T12:54:42;4.17;;;2.00;;
15915;SDS011;8057;47.830;-3.870;2023-05-24T12:58:51;2.63;;;1.97;;
15915;SDS011;8057;47.830;-3.870;2023-05-24T13:03:01;3.13;;;2.30;;
15915;SDS011;8057;47.830;-3.870;2023-05-24T13:07:10;4.80;;;2.30;;
15915;SDS011;8057;47.830;-3.870;2023-05-24T13:11:21;3.70;;;2.30;;
15915;SDS011;8057;47.830;-3.870;2023-05-24T13:15:31;3.23;;;2.10;;
15915;SDS011;8057;47.830;-3.870;2023-05-24T13:19:40;3.80;;;2.67;;
15915;SDS011;8057;47.830;-3.870;2023-05-24T13:23:49;3.93;;;1.93;;
15915;SDS011;8057;47.830;-3.870;2023-05-24T13:28:00;3.53;;;1.80;;
15915;SDS011;8057;47.830;-3.870;2023-05-24T13:32:09;2.43;;;2.07;;
15915;SDS011;8057;47.830;-3.870;2023-05-24T13:36:19;3.03;;;2.20;;
15915;SDS011;8057;47.830;-3.870;2023-05-24T13:40:29;3.60;;;2.10;;
15915;SDS011;8057;47.830;-3.870;2023-05-24T13:44:40;4.30;;;2.07;;
15915;SDS011;8057;47.830;-3.870;2023-05-24T13:48:49;2.73;;;1.93;;
15915;SDS011;8057;47.830;-3.870;2023-05-24T13:52:58;2.20;;;1.97;;
15915;SDS011;8057;47.830;-3.870;2023-05-24T13:57:09;3.07;;;2.30;;
15915;SDS011;8057;47.830;-3.870;2023-05-24T14:01:20;4.13;;;2.53;;
15915;SDS011;8057;47.830;-3.870;2023-05-24T14:05:29;4.30;;;2.50;;
15915;SDS011;8057;47.830;-3.870;2023-05-24T14:09:39;4.17;;;2.60;;
15915;SDS011;8057;47.830;-3.870;2023-05-24T14:13:48;2.57;;;2.33;;
15915;SDS011;8057;47.830;-3.870;2023-05-24T14:18:01;6.27;;;2.80;;
15915;SDS011;8057;47.830;-3.870;2023-05-24T14:22:14;3.10;;;2.60;;
15915;SDS011;8057;47.830;-3.870;2023-05-24T14:26:24;4.50;;;2.60;;
15915;SDS011;8057;47.830;-3.870;2023-05-24T14:30:36;2.67;;;2.47;;
15915;SDS011;8057;47.830;-3.870;2023-05-24T14:34:48;3.80;;;2.50;;
15915;SDS011;8057;47.830;-3.870;2023-05-24T14:39:00;4.07;;;2.97;;
15915;SDS011;8057;47.830;-3.870;2023-05-24T14:43:10;5.10;;;2.73;;
15915;SDS011;8057;47.830;-3.870;2023-05-24T14:47:19;3.80;;;2.93;;
15915;SDS011;8057;47.830;-3.870;2023-05-24T14:51:30;5.17;;;2.63;;
15915;SDS011;8057;47.830;-3.870;2023-05-24T14:55:40;4.47;;;2.77;;
15915;SDS011;8057;47.830;-3.870;2023-05-24T14:59:50;4.23;;;2.60;;
15915;SDS011;8057;47.830;-3.870;2023-05-24T15:03:59;4.20;;;2.90;;
15915;SDS011;8057;47.830;-3.870;2023-05-24T15:08:10;5.83;;;2.77;;
15915;SDS011;8057;47.830;-3.870;2023-05-24T15:12:20;4.90;;;2.57;;
15915;SDS011;8057;47.830;-3.870;2023-05-24T15:16:33;3.77;;;2.80;;
15915;SDS011;8057;47.830;-3.870;2023-05-24T15:20:48;4.83;;;2.70;;
15915;SDS011;8057;47.830;-3.870;2023-05-24T15:24:59;4.67;;;3.43;;
15915;SDS011;8057;47.830;-3.870;2023-05-24T15:29:10;3.80;;;2.97;;
15915;SDS011;8057;47.830;-3.870;2023-05-24T15:33:20;4.50;;;3.20;;
15915;SDS011;8057;47.830;-3.870;2023-05-24T15:37:29;5.37;;;3.13;;
15915;SDS011;8057;47.830;-3.870;2023-05-24T15:41:42;3.63;;;2.73;;
15915;SDS011;8057;47.830;-3.870;2023-05-24T15:45:53;6.17;;;3.43;;
15915;SDS011;8057;47.830;-3.870;2023-05-24T15:50:02;3.73;;;3.43;;
15915;SDS011;8057;47.830;-3.870;2023-05-24T15:54:12;4.47;;;2.67;;
15915;SDS011;8057;47.830;-3.870;2023-05-24T15:58:23;4.03;;;3.63;;
15915;SDS011;8057;47.830;-3.870;2023-05-24T16:02:33;3.77;;;3.20;;
15915;SDS011;8057;47.830;-3.870;2023-05-24T16:06:42;4.43;;;3.30;;
15915;SDS011;8057;47.830;-3.870;2023-05-24T16:10:52;5.83;;;3.20;;
15915;SDS011;8057;47.830;-3.870;2023-05-24T16:15:03;5.87;;;3.33;;
15915;SDS011;8057;47.830;-3.870;2023-05-24T16:19:13;4.10;;;3.77;;
15915;SDS011;8057;47.830;-3.870;2023-05-24T16:23:22;4.17;;;3.37;;
15915;SDS011;8057;47.830;-3.870;2023-05-24T16:27:32;6.73;;;2.73;;
15915;SDS011;8057;47.830;-3.870;2023-05-24T16:31:43;4.27;;;3.27;;
15915;SDS011;8057;47.830;-3.870;2023-05-24T16:35:54;3.63;;;3.00;;
15915;SDS011;8057;47.830;-3.870;2023-05-24T16:40:06;4.90;;;3.30;;
15915;SDS011;8057;47.830;-3.870;2023-05-24T16:44:16;3.13;;;2.90;;
15915;SDS011;8057;47.830;-3.870;2023-05-24T16:48:27;3.23;;;2.93;;
15915;SDS011;8057;47.830;-3.870;2023-05-24T16:52:37;3.63;;;2.97;;
15915;SDS011;8057;47.830;-3.870;2023-05-24T16:56:47;5.43;;;3.37;;
15915;SDS011;8057;47.830;-3.870;2023-05-24T17:00:59;3.00;;;2.70;;
15915;SDS011;8057;47.830;-3.870;2023-05-24T17:05:10;5.27;;;3.70;;
15915;SDS011;8057;47.830;-3.870;2023-05-24T17:09:20;4.97;;;3.50;;
15915;SDS011;8057;47.830;-3.870;2023-05-24T17:13:30;4.53;;;3.33;;
15915;SDS011;8057;47.830;-3.870;2023-05-24T17:17:41;5.27;;;3.10;;
15915;SDS011;8057;47.830;-3.870;2023-05-24T17:21:52;3.60;;;2.70;;
15915;SDS011;8057;47.830;-3.870;2023-05-24T17:26:02;4.80;;;3.30;;
15915;SDS011;8057;47.830;-3.870;2023-05-24T17:30:14;3.63;;;2.80;;
15915;SDS011;8057;47.830;-3.870;2023-05-24T17:34:24;3.47;;;3.13;;
15915;SDS011;8057;47.830;-3.870;2023-05-24T17:38:35;3.83;;;3.43;;
15915;SDS011;8057;47.830;-3.870;2023-05-24T17:42:45;4.17;;;3.27;;
15915;SDS011;8057;47.830;-3.870;2023-05-24T17:46:54;5.83;;;3.43;;
15915;SDS011;8057;47.830;-3.870;2023-05-24T17:51:05;5.90;;;3.63;;
15915;SDS011;8057;47.830;-3.870;2023-05-24T17:55:18;7.30;;;3.50;;
15915;SDS011;8057;47.830;-3.870;2023-05-24T17:59:27;5.93;;;3.63;;
15915;SDS011;8057;47.830;-3.870;2023-05-24T18:03:37;3.53;;;3.20;;
15915;SDS011;8057;47.830;-3.870;2023-05-24T18:07:46;5.60;;;3.13;;
15915;SDS011;8057;47.830;-3.870;2023-05-24T18:11:57;4.13;;;3.40;;
15915;SDS011;8057;47.830;-3.870;2023-05-24T18:16:08;6.60;;;3.40;;
15915;SDS011;8057;47.830;-3.870;2023-05-24T18:20:20;4.93;;;3.47;;
15915;SDS011;8057;47.830;-3.870;2023-05-24T18:24:30;5.67;;;3.87;;
15915;SDS011;8057;47.830;-3.870;2023-05-24T18:28:40;4.90;;;3.30;;
15915;SDS011;8057;47.830;-3.870;2023-05-24T18:32:50;5.17;;;3.70;;
15915;SDS011;8057;47.830;-3.870;2023-05-24T18:37:13;5.70;;;3.97;;
15915;SDS011;8057;47.830;-3.870;2023-05-24T18:41:22;6.10;;;4.07;;
15915;SDS011;8057;47.830;-3.870;2023-05-24T18:45:33;5.80;;;4.40;;
15915;SDS011;8057;47.830;-3.870;2023-05-24T18:49:43;6.43;;;4.23;;
15915;SDS011;8057;47.830;-3.870;2023-05-24T18:53:52;6.67;;;3.80;;
15915;SDS011;8057;47.830;-3.870;2023-05-24T18:58:02;6.73;;;4.17;;
15915;SDS011;8057;47.830;-3.870;2023-05-24T19:02:14;6.90;;;4.37;;
15915;SDS011;8057;47.830;-3.870;2023-05-24T19:06:23;5.87;;;4.17;;
15915;SDS011;8057;47.830;-3.870;2023-05-24T19:10:32;4.80;;;3.93;;
15915;SDS011;8057;47.830;-3.870;2023-05-24T19:14:41;5.90;;;3.73;;
15915;SDS011;8057;47.830;-3.870;2023-05-24T19:18:54;6.07;;;4.17;;
15915;SDS011;8057;47.830;-3.870;2023-05-24T19:23:03;5.63;;;4.13;;
15915;SDS011;8057;47.830;-3.870;2023-05-24T19:27:12;4.67;;;4.03;;
15915;SDS011;8057;47.830;-3.870;2023-05-24T19:31:22;6.13;;;4.60;;
15915;SDS011;8057;47.830;-3.870;2023-05-24T19:35:34;5.10;;;4.07;;
15915;SDS011;8057;47.830;-3.870;2023-05-24T19:39:43;5.40;;;4.20;;
15915;SDS011;8057;47.830;-3.870;2023-05-24T19:48:04;6.03;;;4.23;;
15915;SDS011;8057;47.830;-3.870;2023-05-24T19:52:16;6.13;;;3.90;;
15915;SDS011;8057;47.830;-3.870;2023-05-24T19:56:26;6.33;;;4.30;;
15915;SDS011;8057;47.830;-3.870;2023-05-24T20:00:35;6.07;;;4.60;;
15915;SDS011;8057;47.830;-3.870;2023-05-24T20:04:45;7.10;;;4.37;;
15915;SDS011;8057;47.830;-3.870;2023-05-24T20:08:55;5.70;;;4.30;;
15915;SDS011;8057;47.830;-3.870;2023-05-24T20:13:05;4.90;;;4.20;;
15915;SDS011;8057;47.830;-3.870;2023-05-24T20:17:14;5.37;;;4.03;;
15915;SDS011;8057;47.830;-3.870;2023-05-24T20:21:23;6.60;;;4.83;;
15915;SDS011;8057;47.830;-3.870;2023-05-24T20:25:34;5.80;;;5.10;;
15915;SDS011;8057;47.830;-3.870;2023-05-24T20:29:43;7.33;;;5.10;;
15915;SDS011;8057;47.830;-3.870;2023-05-24T20:33:53;7.80;;;4.60;;
15915;SDS011;8057;47.830;-3.870;2023-05-24T20:38:02;7.17;;;4.57;;
15915;SDS011;8057;47.830;-3.870;2023-05-24T20:42:13;5.77;;;4.73;;
15915;SDS011;8057;47.830;-3.870;2023-05-24T20:46:22;7.10;;;4.90;;
15915;SDS011;8057;47.830;-3.870;2023-05-24T20:50:31;6.57;;;5.10;;
15915;SDS011;8057;47.830;-3.870;2023-05-24T20:54:43;6.00;;;4.77;;
15915;SDS011;8057;47.830;-3.870;2023-05-24T20:58:54;7.90;;;5.03;;
15915;SDS011;8057;47.830;-3.870;2023-05-24T21:03:05;6.67;;;4.90;;
15915;SDS011;8057;47.830;-3.870;2023-05-24T21:07:14;8.47;;;5.20;;
15915;SDS011;8057;47.830;-3.870;2023-05-24T21:11:24;7.53;;;5.70;;
15915;SDS011;8057;47.830;-3.870;2023-05-24T21:15:35;5.23;;;4.63;;
15915;SDS011;8057;47.830;-3.870;2023-05-24T21:19:44;7.17;;;4.97;;
15915;SDS011;8057;47.830;-3.870;2023-05-24T21:23:53;7.97;;;4.57;;
15915;SDS011;8057;47.830;-3.870;2023-05-24T21:28:03;7.97;;;5.13;;
15915;SDS011;8057;47.830;-3.870;2023-05-24T21:32:13;7.20;;;4.70;;
15915;SDS011;8057;47.830;-3.870;2023-05-24T21:36:23;5.80;;;4.70;;
15915;SDS011;8057;47.830;-3.870;2023-05-24T21:40:32;8.33;;;5.23;;
15915;SDS011;8057;47.830;-3.870;2023-05-24T21:44:41;7.47;;;4.70;;
15915;SDS011;8057;47.830;-3.870;2023-05-24T21:48:53;6.23;;;5.23;;
15915;SDS011;8057;47.830;-3.870;2023-05-24T21:53:02;8.23;;;4.67;;
15915;SDS011;8057;47.830;-3.870;2023-05-24T21:57:11;8.73;;;5.10;;
15915;SDS011;8057;47.830;-3.870;2023-05-24T22:01:21;7.40;;;5.43;;
15915;SDS011;8057;47.830;-3.870;2023-05-24T22:05:31;6.70;;;5.10;;
15915;SDS011;8057;47.830;-3.870;2023-05-24T22:09:40;7.47;;;5.10;;
15915;SDS011;8057;47.830;-3.870;2023-05-24T22:13:50;8.43;;;5.33;;
15915;SDS011;8057;47.830;-3.870;2023-05-24T22:17:59;8.67;;;5.20;;
15915;SDS011;8057;47.830;-3.870;2023-05-24T22:22:10;5.63;;;4.93;;
15915;SDS011;8057;47.830;-3.870;2023-05-24T22:26:19;6.47;;;4.70;;
15915;SDS011;8057;47.830;-3.870;2023-05-24T22:30:28;6.77;;;5.00;;
15915;SDS011;8057;47.830;-3.870;2023-05-24T22:34:37;8.97;;;5.30;;
15915;SDS011;8057;47.830;-3.870;2023-05-24T22:38:48;5.73;;;4.70;;
15915;SDS011;8057;47.830;-3.870;2023-05-24T22:42:57;5.37;;;4.73;;
15915;SDS011;8057;47.830;-3.870;2023-05-24T22:47:07;6.27;;;4.73;;
15915;SDS011;8057;47.830;-3.870;2023-05-24T22:51:19;7.33;;;4.60;;
15915;SDS011;8057;47.830;-3.870;2023-05-24T22:55:30;8.17;;;5.37;;
15915;SDS011;8057;47.830;-3.870;2023-05-24T22:59:39;5.77;;;5.07;;
15915;SDS011;8057;47.830;-3.870;2023-05-24T23:03:51;5.90;;;4.93;;
15915;SDS011;8057;47.830;-3.870;2023-05-24T23:08:13;7.37;;;5.57;;
15915;SDS011;8057;47.830;-3.870;2023-05-24T23:12:24;8.13;;;6.53;;
15915;SDS011;8057;47.830;-3.870;2023-05-24T23:16:33;7.97;;;6.33;;
15915;SDS011;8057;47.830;-3.870;2023-05-24T23:20:51;9.17;;;6.50;;
15915;SDS011;8057;47.830;-3.870;2023-05-24T23:25:01;10.80;;;6.37;;
15915;SDS011;8057;47.830;-3.870;2023-05-24T23:29:12;7.87;;;6.90;;
15915;SDS011;8057;47.830;-3.870;2023-05-24T23:33:22;10.10;;;7.23;;
15915;SDS011;8057;47.830;-3.870;2023-05-24T23:37:31;9.83;;;7.43;;
15915;SDS011;8057;47.830;-3.870;2023-05-24T23:41:40;11.03;;;8.27;;
15915;SDS011;8057;47.830;-3.870;2023-05-24T23:45:51;11.47;;;8.50;;
15915;SDS011;8057;47.830;-3.870;2023-05-24T23:50:00;11.30;;;8.73;;
15915;SDS011;8057;47.830;-3.870;2023-05-24T23:54:09;12.83;;;9.27;;
15915;SDS011;8057;47.830;-3.870;2023-05-24T23:58:20;9.50;;;8.50;;
